• Join FlightAware (Why Join?)
  • Login
  • US Flag 
05:24PM EDT


 

Airport Tracker/Info


-or-


 

Live Flight TrackerFlight Track Log ✈ N150SB ✈ 18-Jul-2014 ✈ KRNO - KDAL

Flight Track Log - Related Links

Times and Time Zones

All times are in EDT time to prevent confusion due to time zone crossing. See the N150SB flight status page for this flight to view local times or setup timezone preferences in your user account.

Time Position Orientation Groundspeed Altitude Reporting Facility
EDT Latitude Longitude Course Direction KTS MPH feet Rate Location/Type
05:24PM 39.6328 -119.7889 10° North 248 285 8,600  Level Oakland Center
05:25PM 39.6619 -119.7114 64° Northeast 243 280 11,600 2,460 Climbing Oakland Center
05:26PM 39.6122 -119.6669 145° Southeast 257 296 13,700 2,220 Climbing Oakland Center
05:27PM 39.5444 -119.6347 160° South 282 325 16,300 2,520 Climbing Oakland Center
05:28PM 39.4900 -119.5622 134° Southeast 281 323 19,000 2,040 Climbing Oakland Center
05:29PM 38.1267 -115.3380 101° East  Level FlightAware Approximate
05:29PM 39.4331 -119.4889 135° Southeast 285 328 20,600  Level Oakland Center
05:30PM 39.3706 -119.3925 130° Southeast 357 411 21,300 1,980 Climbing Oakland Center
05:31PM 39.2997 -119.2667 126° Southeast 364 419 24,700 2,940 Climbing Oakland Center
05:32PM 39.2425 -119.1725 128° Southeast 341 392 27,400 1,920 Climbing Oakland Center
05:33PM 39.1897 -119.0797 126° Southeast 326 375 28,700 780 Climbing Oakland Center
05:34PM 39.1344 -118.9669 122° Southeast 375 432 29,100 780 Climbing Oakland Center
05:35PM 39.1125 -118.8275 101° East 401 461 30,400 1,560 Climbing Oakland Center
05:36PM 39.0831 -118.6625 103° East 401 461 32,300 1,800 Climbing Oakland Center
05:37PM 39.0603 -118.5297 102° East 388 447 34,200 1,440 Climbing Oakland Center
05:38PM 39.0386 -118.4022 102° East 372 428 35,300 660 Climbing Oakland Center
05:39PM 38.9867 -118.2792 118° Southeast 390 449 35,600 480 Climbing Oakland Center
05:40PM 38.9292 -118.1544 121° Southeast 403 464 36,400 840 Climbing Oakland Center
05:41PM 38.8836 -118.0231 114° Southeast 404 465 37,400 1,020 Climbing Oakland Center
05:42PM 38.8392 -117.8600 109° East 406 467 38,500 780 Climbing Oakland Center
05:43PM 38.8106 -117.7317 106° East 405 466 39,000 240 Climbing Oakland Center
05:45PM 38.7875 -117.5853 101° East 414 476 39,100  Climbing Oakland Center
05:46PM 38.7636 -117.4308 101° East 435 501 39,000 -60 Descending Oakland Center
05:47PM 38.7392 -117.2706 101° East 451 519 39,000  Level Oakland Center
05:48PM 38.7142 -117.1094 101° East 452 520 39,000  Level Oakland Center
05:49PM 38.6839 -116.9158 101° East 456 525 39,000  Level Oakland Center
05:50PM 38.6572 -116.7564 102° East 457 526 39,000 60 Level Salt Lake Center
05:51PM 38.6303 -116.5944 102° East 457 526 39,200 240 Climbing Oakland Center
05:52PM 38.6036 -116.4339 102° East 458 527 39,500 240 Climbing Oakland Center
05:53PM 38.5792 -116.2786 101° East 456 525 39,700 240 Climbing Salt Lake Center
05:54PM 38.5525 -116.1197 102° East 455 524 40,000 240 Climbing Salt Lake Center
05:55PM 38.5272 -115.9642 102° East 451 519 40,300 240 Climbing Salt Lake Center
05:56PM 38.5000 -115.8100 103° East 448 516 40,500 240 Climbing Salt Lake Center
05:57PM 38.4694 -115.6231 102° East 446 513 40,900 240 Climbing Salt Lake Center
05:58PM 38.4425 -115.4689 103° East 446 513 41,100 60 Climbing Salt Lake Center
05:59PM 38.4172 -115.3292 103° East 446 513 41,100 -60 Level Salt Lake Center
06:00PM 38.3850 -115.1411 102° East 449 517 41,000 -60 Descending Salt Lake Center
06:01PM 38.3578 -114.9836 102° East 452 520 41,000  Level Salt Lake Center
06:02PM 38.3289 -114.8283 103° East 454 522 41,000  Level Salt Lake Center
06:03PM 38.3008 -114.6708 103° East 454 522 41,000  Level Salt Lake Center
06:04PM 38.2722 -114.5136 103° East 454 522 41,000  Level Salt Lake Center
06:05PM 38.2436 -114.3561 103° East 456 525 41,000  Level Salt Lake Center
06:06PM 38.2061 -114.1697 104° East 456 525 41,000  Level Salt Lake Center
06:07PM 38.1742 -114.0144 105° East 456 525 41,000  Level Salt Lake Center
06:08PM 38.1428 -113.8586 104° East 456 525 41,000  Level Salt Lake Center
06:09PM 38.1114 -113.7033 104° East 456 525 41,000  Level Salt Lake Center
06:10PM 38.0800 -113.5472 104° East 456 525 41,000  Level Salt Lake Center
06:11PM 38.0472 -113.3925 105° East 455 524 41,000  Level Salt Lake Center
06:12PM 38.0161 -113.2364 104° East 455 524 41,000  Level Salt Lake Center
06:13PM 37.9756 -113.0492 105° East 456 525 41,000  Level Salt Lake Center
06:14PM 37.9425 -112.8933 105° East 455 524 41,000  Level Salt Lake Center
06:15PM 37.9103 -112.7361 105° East 456 525 41,000  Level Salt Lake Center
06:17PM 37.8767 -112.5794 105° East 456 525 41,000  Level Salt Lake Center
06:18PM 37.8422 -112.4233 106° East 456 525 41,000  Level Salt Lake Center
06:19PM 37.8081 -112.2700 106° East 456 525 41,000  Level Salt Lake Center
06:20PM 37.7744 -112.1164 105° East 455 524 41,000  Level Salt Lake Center
06:21PM 37.7406 -111.9617 105° East 455 524 41,000  Level Salt Lake Center
06:22PM 37.6992 -111.7778 106° East 455 524 41,000  Level Salt Lake Center
06:23PM 37.6647 -111.6247 106° East 454 522 41,000  Level Salt Lake Center
06:24PM 37.6297 -111.4728 106° East 454 522 41,000  Level Salt Lake Center
06:25PM 37.5950 -111.3206 106° East 454 522 41,000  Level Salt Lake Center
06:26PM 37.5603 -111.1669 106° East 454 522 41,000  Level Salt Lake Center
06:27PM 37.5258 -111.0150 106° East 454 522 41,000  Level Salt Lake Center
06:28PM 37.4828 -110.8311 106° East 454 522 41,000  Level Salt Lake Center
06:29PM 37.4486 -110.6794 106° East 454 522 41,000  Level Denver Center
06:30PM 37.4044 -110.4983 107° East 452 520 41,000  Level Denver Center
06:31PM 37.3686 -110.3478 107° East 452 520 41,000  Level Denver Center
06:32PM 37.3328 -110.1964 107° East 452 520 41,000  Level Denver Center
06:33PM 37.2969 -110.0461 107° East 452 520 41,000  Level Denver Center
06:34PM 37.2567 -109.8778 107° East 451 519 41,000  Level Denver Center
06:35PM 37.2206 -109.7336 107° East 451 519 41,000  Level Denver Center
06:36PM 37.1800 -109.5617 106° East 456 525 41,000  Level Denver Center
06:37PM 37.1439 -109.4167 107° East 455 524 41,000  Level Denver Center
06:38PM 37.1014 -109.2458 107° East 457 526 41,000  Level Denver Center
06:39PM 37.0661 -109.0992 107° East 457 526 41,000  Level Denver Center
06:40PM 37.0289 -108.9539 108° East 457 526 41,000  Level Denver Center
06:41PM 36.9864 -108.7839 107° East 458 527 41,000  Level Denver Center
06:43PM 36.9489 -108.6375 108° East 458 527 41,000  Level Denver Center
06:44PM 36.9053 -108.4664 108° East 458 527 41,000  Level Denver Center
06:45PM 36.8683 -108.3206 108° East 458 527 41,000  Level Denver Center
06:46PM 36.8244 -108.1511 108° East 459 528 41,000  Level Denver Center
06:47PM 36.7867 -108.0081 108° East 455 524 41,000  Level Denver Center
06:48PM 36.7417 -107.8397 108° East 455 524 41,000  Level Denver Center
06:49PM 36.7047 -107.6947 108° East 455 524 41,000  Level Denver Center
06:50PM 36.6661 -107.5514 109° East 456 525 41,000  Level Denver Center
06:51PM 36.6214 -107.3842 108° East 456 525 41,000  Level Denver Center
06:52PM 36.5828 -107.2408 109° East 456 525 41,000  Level Denver Center
06:53PM 36.5378 -107.0733 108° East 456 525 41,000  Level Denver Center
06:54PM 36.5000 -106.9300 108° East 456 525 41,000  Level Denver Center
06:55PM 36.4531 -106.7625 109° East 456 525 41,000  Level Denver Center
06:56PM 36.4139 -106.6197 109° East 456 525 41,000  Level Denver Center
06:57PM 36.3764 -106.4825 109° East 457 526 41,000  Level Denver Center
06:58PM 36.3181 -106.2750 109° East 458 527 41,000  Level Albuquerque Center
06:59PM 36.2769 -106.1214 108° East 461 531 41,000  Level Albuquerque Center
07:00PM 36.2339 -105.9678 109° East 465 535 41,000  Level Albuquerque Center
07:01PM 36.1914 -105.8158 109° East 465 535 41,000  Level Albuquerque Center
07:02PM 36.1481 -105.6647 110° East 465 535 41,000  Level Albuquerque Center
07:03PM 36.1033 -105.5078 109° East 465 535 41,000  Level Albuquerque Center
07:04PM 36.0633 -105.3578 108° East 460 529 41,000  Level Albuquerque Center
07:05PM 36.0386 -105.1986 101° East 462 532 41,000  Level Albuquerque Center
07:06PM 36.0161 -105.0403 100° East 463 533 41,000  Level Albuquerque Center
07:08PM 35.9698 -104.8951 111° Southeast  Level FlightAware Approximate
07:08PM 35.9672 -104.6992 111° Southeast 462 532 41,000  Level Albuquerque Center
07:09PM 35.9478 -104.5408 99° East 462 532 41,000  Level Albuquerque Center
07:11PM 35.9258 -104.3806 100° East 462 532 41,000  Level Albuquerque Center
07:12PM 35.8781 -104.2292 111° Southeast 467 537 41,000  Level Albuquerque Center
07:13PM 35.8294 -104.0778 112° Southeast 467 537 41,000  Level Albuquerque Center
07:14PM 35.7794 -103.9250 112° Southeast 468 539 41,000  Level Albuquerque Center
07:15PM 35.7317 -103.7728 111° Southeast 469 540 41,000  Level Albuquerque Center
07:16PM 35.6819 -103.6222 112° Southeast 469 540 41,000  Level Albuquerque Center
07:17PM 35.6319 -103.4703 112° Southeast 469 540 41,000  Level Albuquerque Center
07:18PM 35.5825 -103.3189 112° Southeast 469 540 41,000  Level Albuquerque Center
07:19PM 35.5333 -103.1678 112° Southeast 470 541 41,000  Level Albuquerque Center
07:20PM 35.4825 -103.0181 113° Southeast 470 541 41,000  Level Albuquerque Center
07:21PM 35.4322 -102.8675 112° Southeast 470 541 41,000  Level Albuquerque Center
07:22PM 35.3722 -102.6922 113° Southeast 471 542 41,000  Level Albuquerque Center
07:23PM 35.3289 -102.5681 113° Southeast 472 543 41,000  Level Albuquerque Center
07:24PM 35.2683 -102.3897 113° Southeast 472 543 41,000  Level Albuquerque Center
07:25PM 35.2172 -102.2428 113° Southeast 472 543 41,000  Level Albuquerque Center
07:26PM 35.1661 -102.0961 113° Southeast 472 543 41,000  Level Albuquerque Center
07:27PM 35.1147 -101.9431 112° Southeast 472 543 41,000  Level Albuquerque Center
07:28PM 35.0647 -101.7950 112° Southeast 472 543 41,000  Level Albuquerque Center
07:29PM 35.0144 -101.6483 113° Southeast 467 537 41,000  Level Albuquerque Center
07:30PM 34.9550 -101.4861 114° Southeast 472 543 41,000  Level Albuquerque Center
07:31PM 34.9042 -101.3403 113° Southeast 476 548 41,000  Level Albuquerque Center
07:32PM 34.8536 -101.1961 113° Southeast 472 543 41,000  Level Albuquerque Center
07:33PM 34.8031 -101.0517 113° Southeast 470 541 41,000  Level Albuquerque Center
07:34PM 34.7514 -100.9067 113° Southeast 470 541 41,000  Level Albuquerque Center
07:35PM 34.7003 -100.7631 113° Southeast 469 540 41,000  Level Albuquerque Center
07:36PM 34.6372 -100.5889 114° Southeast 469 540 41,000  Level Albuquerque Center
07:37PM 34.5853 -100.4447 114° Southeast 469 540 41,000  Level Albuquerque Center
07:38PM 34.5322 -100.2997 114° Southeast 469 540 41,000  Level Albuquerque Center
07:39PM 34.4786 -100.1561 114° Southeast 469 540 41,000  Level Albuquerque Center
07:40PM 34.4289 -100.0192 114° Southeast 469 540 41,000  Level Albuquerque Center
07:41PM 34.3647 -99.8456 114° Southeast 469 540 41,000  Level Albuquerque Center
07:42PM 34.3111 -99.7006 114° Southeast 470 541 41,000 -180 Level Albuquerque Center
07:44PM 34.2350 -99.4953 114° Southeast 473 544 40,600 -360 Descending Fort Worth Center
07:45PM 34.1800 -99.3514 115° Southeast 469 540 40,100 -780 Descending Fort Worth Center
07:46PM 34.1231 -99.2022 115° Southeast 481 554 39,000 -1,980 Descending Fort Worth Center
07:47PM 34.0553 -99.0189 114° Southeast 500 575 36,100 -2,700 Descending Fort Worth Center
07:48PM 33.9958 -98.8667 115° Southeast 503 579 33,500 -2,520 Descending Fort Worth Center
07:49PM 33.9361 -98.7108 115° Southeast 510 587 31,000 -2,520 Descending Fort Worth Center
07:50PM 33.8775 -98.5558 114° Southeast 511 588 28,300 -2,820 Descending Fort Worth Center
07:51PM 33.8344 -98.4067 109° East 484 557 25,200 -3,180 Descending Fort Worth Center
07:52PM 33.8197 -98.2344 96° East 454 522 21,800 -2,760 Descending Fort Worth Center
07:53PM 33.7842 -98.0925 107° East 431 496 19,500 -2,400 Descending Fort Worth Center
07:54PM 33.7142 -97.9678 124° Southeast 430 495 16,900 -2,520 Descending Fort Worth Center
07:55PM 33.6483 -97.8431 122° Southeast 424 488 14,300 -2,580 Descending Fort Worth Center
07:56PM 33.5847 -97.7219 122° Southeast 415 478 11,600 -1,980 Descending Fort Worth Center
07:57PM 33.5247 -97.6092 123° Southeast 392 451 10,200 -840 Descending Fort Worth Center
07:58PM 33.4681 -97.5017 122° Southeast 385 443 9,900 -420 Descending Fort Worth Center
07:59PM 33.4056 -97.4214 133° Southeast 299 344 9,400 -780 Descending Fort Worth Center
08:00PM 33.3661 -97.3408 120° Southeast 296 341 8,400 -1,020 Descending Fort Worth Center
08:01PM 33.3572 -97.2353 96° East 296 341 7,300 -1,020 Descending Fort Worth Center
08:03PM 33.3503 -97.1408 95° East 290 334 6,300 -1,020 Descending Fort Worth Center
08:04PM 33.3033 -97.0631 126° Southeast 282 325 5,200 -1,020 Descending Fort Worth Center
08:05PM 33.2483 -97.0011 137° Southeast 276 318 4,200 -600 Descending Fort Worth Center
08:06PM 33.1956 -96.9378 135° Southeast 273 314 4,000 -120 Descending Fort Worth Center
08:07PM 33.1383 -96.8683 135° Southeast 270 311 4,000  Level Fort Worth Center
08:08PM 33.0817 -96.7997 135° Southeast 272 313 4,000  Level Fort Worth Center
08:09PM 33.0286 -96.7364 135° Southeast 272 313 4,000  Level Fort Worth Center
08:10PM 32.9703 -96.6789 140° Southeast 248 285 4,000  Level Fort Worth Center
08:11PM 32.9142 -96.6461 154° Southeast 232 267 4,000 -300 Level Fort Worth Center
08:12PM 32.8475 -96.6358 173° South 230 265 3,500 -780 Descending Fort Worth Center
08:13PM 32.8058 -96.6761 219° Southwest 219 252 2,500 -540 Descending Fort Worth Center
08:14PM 32.8008 -96.7539 266° West 218 251 2,400 -540 Descending Fort Worth Center
08:15PM 32.8067 -96.8094 277° West 168 193 1,500 -960 Descending Fort Worth Center
08:16PM 32.8300 -96.8386 314° West 137 158 500 -960 Descending Fort Worth Center